createdAt,value
2023-11-23T00:01:37.685Z,6.42
2023-11-23T00:04:05.470Z,6.44
2023-11-23T00:06:37.876Z,6.35
2023-11-23T00:09:13.346Z,6.24
2023-11-23T00:14:58.400Z,6.33
2023-11-23T00:17:23.981Z,6.44
2023-11-23T00:20:00.562Z,6.11
2023-11-23T00:22:27.864Z,5.62
2023-11-23T00:25:06.342Z,5.92
2023-11-23T00:27:37.536Z,5.72
2023-11-23T00:30:33.148Z,5.16
2023-11-23T00:33:34.056Z,4.94
2023-11-23T00:36:09.132Z,5.01
2023-11-23T00:38:42.498Z,5.06
2023-11-23T00:42:36.502Z,5.16
2023-11-23T00:45:40.848Z,5.22
2023-11-23T00:49:09.981Z,5.25
2023-11-23T00:52:19.174Z,5.23
2023-11-23T00:54:48.757Z,5.39
2023-11-23T00:57:24.719Z,5.23
2023-11-23T00:59:55.849Z,5.19
2023-11-23T01:03:20.859Z,5.21
2023-11-23T01:05:57.071Z,5.29
2023-11-23T01:09:12.814Z,5.29
2023-11-23T01:12:06.767Z,5.07
2023-11-23T01:14:42.674Z,5.15
2023-11-23T01:17:23.039Z,5.26
2023-11-23T01:20:24.465Z,5.40
2023-11-23T01:25:34.543Z,5.65
2023-11-23T01:28:48.996Z,5.66
2023-11-23T01:31:27.365Z,5.64
2023-11-23T01:34:02.630Z,5.69
2023-11-23T01:36:33.621Z,5.72
2023-11-23T01:39:04.314Z,5.77
2023-11-23T01:41:37.863Z,5.79
2023-11-23T01:44:28.818Z,5.83
2023-11-23T01:47:53.763Z,5.71
2023-11-23T01:51:52.843Z,5.63
2023-11-23T01:55:16.555Z,5.64
2023-11-23T01:59:00.420Z,5.64
2023-11-23T02:06:50.402Z,5.47
2023-11-23T02:10:20.151Z,5.39
2023-11-23T02:14:35.739Z,5.46
2023-11-23T02:18:33.959Z,5.53
2023-11-23T02:22:08.502Z,5.60
2023-11-23T02:33:57.926Z,5.34
2023-11-23T02:38:11.202Z,5.44
2023-11-23T02:41:29.688Z,5.46
2023-11-23T02:45:17.376Z,5.58
2023-11-23T02:47:52.659Z,5.60
2023-11-23T02:54:00.446Z,5.49
2023-11-23T02:56:56.853Z,5.49
2023-11-23T02:59:48.470Z,5.44
2023-11-23T03:02:29.199Z,5.44
2023-11-23T03:05:01.989Z,5.37
2023-11-23T03:07:55.350Z,5.33
2023-11-23T03:10:37.524Z,5.25
2023-11-23T03:13:13.453Z,5.20
2023-11-23T03:16:42.760Z,5.11
2023-11-23T03:19:51.706Z,4.94
2023-11-23T03:22:29.483Z,4.69
2023-11-23T03:25:31.422Z,4.75
2023-11-23T03:28:10.501Z,4.69
2023-11-23T03:30:44.585Z,4.73
2023-11-23T03:33:16.208Z,4.63
2023-11-23T03:35:51.968Z,4.51
2023-11-23T03:38:19.670Z,4.64
2023-11-23T03:41:02.548Z,4.55
2023-11-23T03:43:32.035Z,4.57
2023-11-23T03:46:23.490Z,4.47
2023-11-23T03:48:57.414Z,4.28
2023-11-23T03:51:27.553Z,4.15
2023-11-23T03:56:56.950Z,4.31
2023-11-23T03:59:31.745Z,4.34
2023-11-23T04:01:58.834Z,4.32
2023-11-23T04:04:34.946Z,4.24
2023-11-23T04:07:14.657Z,4.21
2023-11-23T04:09:42.102Z,4.30
2023-11-23T04:12:21.878Z,4.32
2023-11-23T04:15:03.694Z,4.37
2023-11-23T04:17:42.029Z,4.34
2023-11-23T04:20:50.390Z,4.36
2023-11-23T04:23:17.799Z,4.54
2023-11-23T04:25:47.893Z,4.45
2023-11-23T04:28:15.023Z,4.21
2023-11-23T04:30:45.112Z,4.33
2023-11-23T04:33:12.749Z,4.41
2023-11-23T04:35:46.054Z,4.41
2023-11-23T04:38:16.027Z,4.30
2023-11-23T04:40:43.173Z,4.08
2023-11-23T04:43:10.168Z,4.05
2023-11-23T04:45:37.151Z,4.06
2023-11-23T04:48:06.163Z,4.19
2023-11-23T04:50:34.557Z,4.06
2023-11-23T04:53:01.906Z,3.98
2023-11-23T04:55:31.996Z,3.96
2023-11-23T04:57:59.095Z,3.77
2023-11-23T05:00:27.395Z,3.86
2023-11-23T05:02:55.646Z,3.73
2023-11-23T05:05:22.904Z,3.56
2023-11-23T05:07:50.552Z,3.60
2023-11-23T05:10:19.059Z,3.50
2023-11-23T05:12:51.551Z,3.50
2023-11-23T05:15:22.724Z,3.37
2023-11-23T05:17:56.783Z,3.37
2023-11-23T05:20:27.050Z,3.39
2023-11-23T05:22:54.407Z,3.36
2023-11-23T05:25:30.186Z,3.38
2023-11-23T05:28:03.135Z,3.52
2023-11-23T05:30:34.056Z,3.66
2023-11-23T05:33:06.598Z,3.53
2023-11-23T05:35:40.034Z,3.38
2023-11-23T05:38:13.139Z,3.30
2023-11-23T05:40:58.167Z,3.25
2023-11-23T05:43:29.461Z,3.16
2023-11-23T05:46:05.858Z,3.26
2023-11-23T05:48:39.138Z,3.26
2023-11-23T05:51:10.814Z,3.46
2023-11-23T05:53:49.974Z,3.69
2023-11-23T05:56:37.408Z,3.85
2023-11-23T05:59:04.892Z,4.01
2023-11-23T06:01:32.772Z,4.12
2023-11-23T06:04:05.612Z,3.91
2023-11-23T06:06:35.900Z,3.93
2023-11-23T06:09:10.939Z,3.90
2023-11-23T06:11:38.269Z,3.88
2023-11-23T06:14:06.058Z,3.94
2023-11-23T06:16:33.430Z,3.91
2023-11-23T06:19:03.571Z,3.80
2023-11-23T06:21:34.729Z,3.94
2023-11-23T06:24:01.983Z,3.84
2023-11-23T06:26:33.153Z,3.86
2023-11-23T06:29:01.086Z,3.98
2023-11-23T06:31:28.934Z,4.13
2023-11-23T06:33:56.144Z,3.92
2023-11-23T06:36:23.362Z,3.97
2023-11-23T06:38:53.999Z,3.92
2023-11-23T06:41:26.967Z,4.12
2023-11-23T06:43:54.633Z,4.17
2023-11-23T06:46:22.153Z,4.39
2023-11-23T06:48:49.303Z,4.53
2023-11-23T06:51:16.686Z,4.71
2023-11-23T06:53:47.994Z,4.83
2023-11-23T06:56:18.798Z,5.00
2023-11-23T06:58:49.379Z,4.95
2023-11-23T07:01:17.136Z,5.03
2023-11-23T07:03:48.087Z,5.21
2023-11-23T07:06:15.491Z,5.07
2023-11-23T07:08:42.899Z,5.19
2023-11-23T07:11:14.261Z,5.25
2023-11-23T07:13:44.852Z,5.60
2023-11-23T07:16:18.971Z,5.87
2023-11-23T07:18:54.045Z,6.19
2023-11-23T07:21:36.776Z,6.15
2023-11-23T07:24:13.323Z,6.03
2023-11-23T07:26:40.779Z,6.43
2023-11-23T07:29:07.950Z,6.08
2023-11-23T07:31:34.975Z,6.38
2023-11-23T07:34:07.329Z,6.81
2023-11-23T07:36:55.226Z,7.53
2023-11-23T07:39:48.657Z,7.93
2023-11-23T07:42:17.332Z,8.68
2023-11-23T07:44:50.557Z,9.59
2023-11-23T07:47:17.572Z,9.76
2023-11-23T07:49:47.293Z,9.79
2023-11-23T07:52:16.189Z,9.23
2023-11-23T07:54:45.850Z,9.29
2023-11-23T07:57:13.017Z,8.89
2023-11-23T07:59:40.497Z,8.74
2023-11-23T08:02:07.839Z,9.27
2023-11-23T08:04:35.221Z,10.34
2023-11-23T08:07:02.747Z,11.33
2023-11-23T08:09:30.255Z,11.91
2023-11-23T08:11:58.422Z,14.08
2023-11-23T08:14:25.205Z,15.86
2023-11-23T08:16:52.049Z,16.07
2023-11-23T08:19:19.555Z,17.13
2023-11-23T08:21:49.160Z,16.91
2023-11-23T08:24:18.164Z,16.76
2023-11-23T08:26:45.401Z,17.56
2023-11-23T08:29:12.908Z,18.09
2023-11-23T08:31:40.930Z,17.70
2023-11-23T08:34:09.151Z,17.34
2023-11-23T08:36:37.327Z,17.30
2023-11-23T08:39:06.260Z,17.68
2023-11-23T08:41:33.241Z,18.07
2023-11-23T08:44:00.919Z,18.08
2023-11-23T08:46:28.569Z,18.50
2023-11-23T08:48:55.860Z,18.27
2023-11-23T08:51:23.601Z,17.76
2023-11-23T08:53:51.199Z,17.12
2023-11-23T08:56:18.492Z,18.38
2023-11-23T08:58:45.573Z,18.45
2023-11-23T09:01:12.758Z,18.71
2023-11-23T09:03:39.965Z,19.24
2023-11-23T09:06:07.194Z,19.07
2023-11-23T09:08:34.046Z,17.91
2023-11-23T09:11:00.786Z,17.76
2023-11-23T09:13:28.110Z,16.28
2023-11-23T09:15:55.518Z,15.38
2023-11-23T09:18:23.289Z,15.93
2023-11-23T09:21:01.074Z,14.78
2023-11-23T09:23:29.271Z,15.24
2023-11-23T09:25:56.341Z,15.19
2023-11-23T09:28:23.516Z,15.25
2023-11-23T09:30:50.310Z,14.63
2023-11-23T09:33:20.208Z,14.06
2023-11-23T09:35:47.770Z,13.57
2023-11-23T09:38:14.731Z,12.93
2023-11-23T09:40:44.647Z,12.86
2023-11-23T09:43:12.243Z,12.34
2023-11-23T09:45:39.928Z,12.36
2023-11-23T09:48:08.745Z,12.45
2023-11-23T09:50:39.017Z,13.79
2023-11-23T09:53:09.254Z,15.05
2023-11-23T09:55:36.260Z,16.20
2023-11-23T09:58:05.893Z,17.07
2023-11-23T10:00:36.522Z,15.78
2023-11-23T10:03:08.383Z,15.71
2023-11-23T10:05:35.960Z,14.63
2023-11-23T10:08:03.727Z,14.86
2023-11-23T10:10:30.863Z,15.12
2023-11-23T10:12:57.635Z,15.30
2023-11-23T10:15:27.076Z,14.87
2023-11-23T10:17:53.878Z,14.44
2023-11-23T10:20:22.536Z,13.92
2023-11-23T10:22:50.553Z,13.17
2023-11-23T10:25:30.473Z,13.08
2023-11-23T10:27:57.395Z,12.88
2023-11-23T10:30:28.988Z,12.70
2023-11-23T10:32:57.460Z,12.63
2023-11-23T10:35:29.519Z,12.63
2023-11-23T10:37:56.971Z,12.56
2023-11-23T10:40:25.581Z,12.34
2023-11-23T10:42:54.002Z,12.19
2023-11-23T10:45:22.867Z,12.27
2023-11-23T10:47:52.603Z,12.12
2023-11-23T10:50:20.734Z,12.21
2023-11-23T10:52:48.442Z,12.12
2023-11-23T10:55:15.336Z,12.26
2023-11-23T10:57:53.226Z,12.15
2023-11-23T11:00:24.588Z,12.11
2023-11-23T11:02:54.044Z,12.22
2023-11-23T11:05:29.728Z,12.23
2023-11-23T11:08:02.588Z,12.22
2023-11-23T11:10:33.519Z,12.12
2023-11-23T11:13:14.393Z,12.18
2023-11-23T11:15:56.640Z,12.13
2023-11-23T11:18:28.166Z,12.26
2023-11-23T11:21:15.684Z,12.20
2023-11-23T11:23:46.329Z,12.17
2023-11-23T11:26:19.308Z,12.16
2023-11-23T11:28:55.181Z,12.06
2023-11-23T11:31:40.653Z,11.90
2023-11-23T11:34:24.022Z,12.14
2023-11-23T11:37:05.141Z,12.19
2023-11-23T11:39:33.056Z,12.21
2023-11-23T11:42:04.926Z,12.33
2023-11-23T11:44:34.687Z,12.33
2023-11-23T11:47:02.671Z,12.30
2023-11-23T11:49:29.684Z,12.29
2023-11-23T11:51:56.608Z,12.47
2023-11-23T11:54:25.175Z,12.47
2023-11-23T11:56:52.870Z,12.47
2023-11-23T11:59:25.116Z,12.55
2023-11-23T12:01:53.032Z,12.46
2023-11-23T12:04:21.295Z,12.53
2023-11-23T12:06:54.390Z,12.47
2023-11-23T12:09:34.065Z,12.60
2023-11-23T12:12:06.875Z,12.59
2023-11-23T12:14:35.284Z,12.58
2023-11-23T12:17:13.170Z,12.51
2023-11-23T12:19:52.800Z,12.52
2023-11-23T12:22:24.428Z,12.50
2023-11-23T12:24:52.406Z,12.51
2023-11-23T12:27:21.919Z,12.46
2023-11-23T12:29:49.701Z,12.53
2023-11-23T12:32:17.945Z,12.59
2023-11-23T12:34:44.902Z,12.55
2023-11-23T12:37:11.723Z,12.51
2023-11-23T12:39:39.116Z,12.54
2023-11-23T12:42:06.057Z,12.54
2023-11-23T12:44:36.739Z,12.59
2023-11-23T12:47:04.383Z,12.55
2023-11-23T12:49:31.401Z,12.56
2023-11-23T12:51:59.848Z,12.63
2023-11-23T12:55:08.231Z,12.57
2023-11-23T12:57:35.416Z,12.60
2023-11-23T13:00:03.624Z,12.58
2023-11-23T13:02:30.853Z,12.61
2023-11-23T13:04:59.178Z,12.59
2023-11-23T13:07:27.325Z,12.63
2023-11-23T13:09:54.189Z,12.59
2023-11-23T13:12:21.400Z,12.57
2023-11-23T13:14:51.026Z,12.59
2023-11-23T13:17:20.888Z,12.57
2023-11-23T13:19:49.188Z,12.68
2023-11-23T13:22:17.091Z,12.68
2023-11-23T13:24:44.609Z,12.59
2023-11-23T13:27:13.424Z,12.58
2023-11-23T13:29:40.408Z,12.55
2023-11-23T13:32:08.136Z,12.56
2023-11-23T13:34:35.799Z,12.60
2023-11-23T13:37:02.985Z,12.55
2023-11-23T13:39:32.452Z,12.61
2023-11-23T13:41:59.259Z,12.61
2023-11-23T13:44:26.151Z,12.63
2023-11-23T13:46:53.501Z,12.55
2023-11-23T13:49:22.193Z,12.58
2023-11-23T13:51:49.116Z,12.61
2023-11-23T13:54:16.015Z,12.62
2023-11-23T13:56:44.080Z,12.70
2023-11-23T13:59:12.424Z,12.64
2023-11-23T14:01:40.073Z,12.61
2023-11-23T14:04:07.787Z,12.57
2023-11-23T14:06:34.823Z,12.52
2023-11-23T14:09:03.633Z,12.54
2023-11-23T14:11:30.454Z,12.49
2023-11-23T14:13:57.354Z,12.47
2023-11-23T14:16:24.323Z,12.40
2023-11-23T14:18:51.333Z,12.45
2023-11-23T14:21:18.614Z,12.43
2023-11-23T14:23:50.108Z,12.36
2023-11-23T14:26:21.632Z,12.31
2023-11-23T14:28:51.268Z,12.29
2023-11-23T14:31:20.633Z,12.28
2023-11-23T14:33:47.782Z,12.26
2023-11-23T14:36:15.444Z,12.35
2023-11-23T14:38:42.390Z,12.33
2023-11-23T14:41:09.839Z,12.27
2023-11-23T14:43:36.692Z,12.21
2023-11-23T14:46:03.508Z,12.18
2023-11-23T14:48:30.405Z,12.21
2023-11-23T14:50:57.179Z,12.19
2023-11-23T14:53:28.550Z,12.13
2023-11-23T14:55:57.062Z,12.04
2023-11-23T14:58:24.240Z,11.94
2023-11-23T15:00:54.066Z,11.87
2023-11-23T15:03:21.268Z,11.73
2023-11-23T15:05:49.810Z,11.62
2023-11-23T15:08:17.759Z,11.59
2023-11-23T15:10:45.954Z,11.52
2023-11-23T15:13:18.773Z,11.43
2023-11-23T15:15:49.993Z,11.39
2023-11-23T15:18:16.870Z,11.34
2023-11-23T15:20:47.196Z,11.25
2023-11-23T15:23:14.163Z,11.15
2023-11-23T15:25:41.008Z,11.05
2023-11-23T15:28:11.822Z,10.94
2023-11-23T15:30:41.999Z,10.83
2023-11-23T15:33:09.374Z,10.72
2023-11-23T15:35:38.473Z,10.66
2023-11-23T15:38:06.223Z,10.55
2023-11-23T15:40:33.121Z,10.54
2023-11-23T15:42:59.930Z,10.48
2023-11-23T15:45:26.726Z,10.34
2023-11-23T15:47:53.844Z,10.19
2023-11-23T15:50:24.164Z,10.04
2023-11-23T15:52:56.242Z,9.99
2023-11-23T15:55:24.739Z,9.87
2023-11-23T15:57:52.163Z,9.86
2023-11-23T16:00:25.942Z,9.93
2023-11-23T16:02:55.740Z,9.81
2023-11-23T16:05:28.783Z,9.76
2023-11-23T16:07:56.129Z,9.71
2023-11-23T16:10:24.024Z,9.65
2023-11-23T16:12:50.911Z,9.54
2023-11-23T16:15:17.892Z,9.58
2023-11-23T16:17:45.565Z,9.48
2023-11-23T16:20:17.461Z,9.39
2023-11-23T16:22:47.663Z,9.41
2023-11-23T16:25:16.376Z,9.44
2023-11-23T16:27:43.181Z,9.35
2023-11-23T16:30:13.381Z,9.34
2023-11-23T16:32:41.700Z,9.39
2023-11-23T16:35:12.092Z,9.28
2023-11-23T16:37:39.963Z,9.16
2023-11-23T16:40:11.754Z,9.08
2023-11-23T16:42:42.046Z,9.03
2023-11-23T16:45:13.228Z,8.93
2023-11-23T16:47:44.086Z,8.95
2023-11-23T16:50:16.635Z,9.06
2023-11-23T16:52:43.614Z,9.02
2023-11-23T16:55:21.116Z,9.00
2023-11-23T16:57:48.735Z,8.94
2023-11-23T17:00:22.143Z,8.96
2023-11-23T17:02:49.437Z,9.01
2023-11-23T17:05:16.715Z,8.97
2023-11-23T17:07:43.979Z,8.89
2023-11-23T17:10:17.595Z,8.84
2023-11-23T17:12:45.254Z,8.71
2023-11-23T17:15:13.304Z,8.69
2023-11-23T17:17:46.232Z,8.67
2023-11-23T17:20:15.389Z,8.61
2023-11-23T17:22:46.249Z,8.50
2023-11-23T17:25:13.578Z,8.38
2023-11-23T17:27:42.846Z,8.31
2023-11-23T17:30:10.345Z,8.32
2023-11-23T17:32:39.850Z,8.28
2023-11-23T17:35:09.675Z,8.38
2023-11-23T17:37:37.198Z,8.34
2023-11-23T17:40:08.221Z,8.33
2023-11-23T17:42:35.491Z,8.42
2023-11-23T17:45:02.747Z,8.40
2023-11-23T17:47:29.772Z,8.36
2023-11-23T17:50:00.764Z,8.30
2023-11-23T17:52:27.995Z,8.29
2023-11-23T17:54:58.685Z,8.26
2023-11-23T17:57:26.241Z,8.21
2023-11-23T17:59:57.189Z,8.23
2023-11-23T18:02:24.761Z,8.22
2023-11-23T18:04:57.411Z,8.15
2023-11-23T18:07:25.311Z,8.13
2023-11-23T18:09:52.467Z,8.20
2023-11-23T18:12:19.722Z,8.16
2023-11-23T18:14:46.810Z,8.13
2023-11-23T18:17:14.017Z,8.12
2023-11-23T18:19:41.796Z,8.10
2023-11-23T18:22:09.390Z,8.02
2023-11-23T18:24:37.013Z,8.01
2023-11-23T18:27:05.133Z,8.07
2023-11-23T18:29:32.258Z,8.08
2023-11-23T18:31:59.373Z,8.01
2023-11-23T18:34:26.407Z,7.92
2023-11-23T18:36:53.526Z,7.95
2023-11-23T18:39:23.905Z,7.90
2023-11-23T18:41:50.967Z,7.88
2023-11-23T18:44:18.335Z,7.88
2023-11-23T18:46:45.637Z,7.91
2023-11-23T18:49:13.682Z,7.88
2023-11-23T18:51:41.582Z,7.84
2023-11-23T18:54:08.983Z,7.78
2023-11-23T18:56:37.158Z,7.73
2023-11-23T18:59:08.815Z,7.64
2023-11-23T19:01:47.746Z,7.60
2023-11-23T19:04:15.434Z,7.70
2023-11-23T19:06:54.459Z,7.67
2023-11-23T19:09:28.804Z,7.73
2023-11-23T19:11:57.989Z,7.62
2023-11-23T19:14:28.336Z,7.59
2023-11-23T19:16:55.591Z,7.53
2023-11-23T19:19:28.223Z,7.51
2023-11-23T19:22:03.220Z,7.48
2023-11-23T19:24:33.493Z,7.44
2023-11-23T19:27:04.379Z,7.38
2023-11-23T19:29:52.690Z,7.36
2023-11-23T19:32:41.412Z,7.26
2023-11-23T19:35:21.097Z,7.29
2023-11-23T19:37:56.316Z,7.42
2023-11-23T19:40:26.792Z,7.43
2023-11-23T19:43:23.169Z,7.51
2023-11-23T19:46:09.021Z,7.39
2023-11-23T19:48:36.625Z,7.30
2023-11-23T19:51:06.340Z,7.32
2023-11-23T19:53:41.747Z,7.25
2023-11-23T19:56:09.763Z,7.30
2023-11-23T19:58:38.627Z,7.33
2023-11-23T20:01:09.316Z,7.33
2023-11-23T20:03:36.556Z,7.28
2023-11-23T20:06:08.166Z,7.18
2023-11-23T20:08:48.946Z,7.15
2023-11-23T20:11:22.765Z,7.18
2023-11-23T20:14:21.795Z,7.17
2023-11-23T20:17:51.722Z,7.06
2023-11-23T20:20:01.796Z,6.96
2023-11-23T20:22:30.893Z,6.91
2023-11-23T20:25:08.573Z,6.87
2023-11-23T20:27:48.574Z,6.82
2023-11-23T20:30:27.334Z,6.93
2023-11-23T20:32:54.580Z,6.86
2023-11-23T20:35:23.599Z,6.71
2023-11-23T20:37:55.846Z,6.82
2023-11-23T20:40:24.479Z,6.85
2023-11-23T20:42:55.260Z,6.89
2023-11-23T20:45:39.652Z,6.95
2023-11-23T20:48:06.729Z,6.81
2023-11-23T20:51:01.936Z,6.69
2023-11-23T20:53:28.602Z,6.72
2023-11-23T20:55:58.997Z,6.74
2023-11-23T20:58:34.836Z,6.77
2023-11-23T21:01:17.201Z,6.76
2023-11-23T21:03:44.955Z,6.78
2023-11-23T21:06:20.149Z,6.81
2023-11-23T21:08:52.979Z,6.74
2023-11-23T21:11:24.379Z,6.61
2023-11-23T21:13:53.870Z,6.58
2023-11-23T21:16:46.501Z,6.58
2023-11-23T21:19:14.204Z,6.57
2023-11-23T21:21:44.397Z,6.52
2023-11-23T21:24:14.950Z,6.44
2023-11-23T21:26:42.208Z,6.43
2023-11-23T21:29:19.349Z,6.39
2023-11-23T21:31:46.545Z,6.48
2023-11-23T21:34:57.036Z,6.50
2023-11-23T21:37:24.088Z,6.46
2023-11-23T21:39:58.740Z,6.51
2023-11-23T21:42:26.000Z,6.43
2023-11-23T21:44:53.283Z,6.39
2023-11-23T21:47:20.521Z,6.40
2023-11-23T21:50:10.371Z,6.30
2023-11-23T21:52:38.568Z,6.20
2023-11-23T21:55:12.525Z,6.11
2023-11-23T21:57:47.458Z,6.03
2023-11-23T22:01:30.443Z,5.96
2023-11-23T22:03:28.457Z,5.91
2023-11-23T22:06:00.615Z,5.96
2023-11-23T22:08:31.124Z,5.88
2023-11-23T22:11:01.637Z,5.95
2023-11-23T22:13:33.874Z,6.04
2023-11-23T22:16:05.845Z,6.10
2023-11-23T22:18:38.387Z,6.11
2023-11-23T22:21:15.700Z,5.99
2023-11-23T22:23:42.687Z,5.94
2023-11-23T22:26:37.724Z,5.92
2023-11-23T22:29:03.192Z,6.00
2023-11-23T22:31:38.401Z,5.94
2023-11-23T22:34:09.759Z,6.01
2023-11-23T22:36:47.496Z,6.00
2023-11-23T22:39:20.632Z,5.99
2023-11-23T22:41:51.374Z,5.63
2023-11-23T22:44:20.460Z,5.55
2023-11-23T22:46:56.389Z,5.59
2023-11-23T22:49:24.932Z,5.67
2023-11-23T22:52:20.426Z,5.71
2023-11-23T22:55:25.350Z,5.78
2023-11-23T22:58:41.345Z,5.61
2023-11-23T23:01:39.968Z,5.56
2023-11-23T23:04:22.096Z,5.60
2023-11-23T23:06:55.827Z,5.57
2023-11-23T23:09:34.624Z,5.61
2023-11-23T23:12:02.079Z,5.61
2023-11-23T23:14:57.936Z,5.67
2023-11-23T23:17:30.705Z,5.62
2023-11-23T23:20:03.646Z,5.59
2023-11-23T23:22:39.793Z,5.39
2023-11-23T23:25:10.407Z,5.38
2023-11-23T23:28:10.379Z,5.27
2023-11-23T23:30:57.711Z,5.24
2023-11-23T23:33:28.482Z,5.26
2023-11-23T23:35:55.875Z,5.35
2023-11-23T23:38:34.618Z,5.32
2023-11-23T23:41:11.691Z,5.30
2023-11-23T23:44:30.136Z,5.40
2023-11-23T23:47:40.793Z,5.39
2023-11-23T23:50:58.541Z,5.40
2023-11-23T23:57:37.589Z,5.39
